sensor_id;sensor_type;location;lat;lon;timestamp;P1;durP1;ratioP1;P2;durP2;ratioP2
37459;SDS011;23318;50.966;5.284;2023-04-08T00:01:12;22.27;;;6.63;;
37459;SDS011;23318;50.966;5.284;2023-04-08T00:03:38;19.13;;;6.35;;
37459;SDS011;23318;50.966;5.284;2023-04-08T00:06:03;19.25;;;6.50;;
37459;SDS011;23318;50.966;5.284;2023-04-08T00:08:29;17.95;;;6.85;;
37459;SDS011;23318;50.966;5.284;2023-04-08T00:10:55;23.27;;;7.00;;
37459;SDS011;23318;50.966;5.284;2023-04-08T00:13:20;18.70;;;6.80;;
37459;SDS011;23318;50.966;5.284;2023-04-08T00:15:46;15.25;;;5.88;;
37459;SDS011;23318;50.966;5.284;2023-04-08T00:18:13;23.00;;;6.32;;
37459;SDS011;23318;50.966;5.284;2023-04-08T00:20:42;17.05;;;6.18;;
37459;SDS011;23318;50.966;5.284;2023-04-08T00:23:08;26.13;;;7.63;;
37459;SDS011;23318;50.966;5.284;2023-04-08T00:25:33;27.48;;;6.75;;
37459;SDS011;23318;50.966;5.284;2023-04-08T00:27:59;20.05;;;6.47;;
37459;SDS011;23318;50.966;5.284;2023-04-08T00:30:25;21.52;;;5.80;;
37459;SDS011;23318;50.966;5.284;2023-04-08T00:32:53;18.08;;;6.18;;
37459;SDS011;23318;50.966;5.284;2023-04-08T00:35:19;15.27;;;5.60;;
37459;SDS011;23318;50.966;5.284;2023-04-08T00:37:45;21.38;;;6.05;;
37459;SDS011;23318;50.966;5.284;2023-04-08T00:40:11;16.95;;;5.93;;
37459;SDS011;23318;50.966;5.284;2023-04-08T00:42:37;18.15;;;6.00;;
37459;SDS011;23318;50.966;5.284;2023-04-08T00:45:03;16.48;;;5.88;;
37459;SDS011;23318;50.966;5.284;2023-04-08T00:47:29;29.92;;;6.60;;
37459;SDS011;23318;50.966;5.284;2023-04-08T00:49:55;22.25;;;6.55;;
37459;SDS011;23318;50.966;5.284;2023-04-08T00:52:21;19.70;;;6.28;;
37459;SDS011;23318;50.966;5.284;2023-04-08T00:54:46;28.65;;;6.97;;
37459;SDS011;23318;50.966;5.284;2023-04-08T00:57:12;20.13;;;7.97;;
37459;SDS011;23318;50.966;5.284;2023-04-08T00:59:38;27.10;;;9.68;;
37459;SDS011;23318;50.966;5.284;2023-04-08T01:02:08;29.63;;;9.02;;
37459;SDS011;23318;50.966;5.284;2023-04-08T01:09:42;25.40;;;7.65;;
37459;SDS011;23318;50.966;5.284;2023-04-08T01:12:17;26.80;;;7.50;;
37459;SDS011;23318;50.966;5.284;2023-04-08T01:14:45;23.75;;;7.68;;
37459;SDS011;23318;50.966;5.284;2023-04-08T01:17:12;21.33;;;7.25;;
37459;SDS011;23318;50.966;5.284;2023-04-08T01:19:40;24.80;;;7.88;;
37459;SDS011;23318;50.966;5.284;2023-04-08T01:22:14;20.00;;;7.20;;
37459;SDS011;23318;50.966;5.284;2023-04-08T01:25:04;24.35;;;7.30;;
37459;SDS011;23318;50.966;5.284;2023-04-08T01:27:35;23.02;;;8.05;;
37459;SDS011;23318;50.966;5.284;2023-04-08T01:30:03;18.77;;;7.00;;
37459;SDS011;23318;50.966;5.284;2023-04-08T01:32:31;17.40;;;6.47;;
37459;SDS011;23318;50.966;5.284;2023-04-08T01:34:58;22.65;;;6.07;;
37459;SDS011;23318;50.966;5.284;2023-04-08T01:37:25;15.38;;;5.90;;
37459;SDS011;23318;50.966;5.284;2023-04-08T01:39:52;22.00;;;7.28;;
37459;SDS011;23318;50.966;5.284;2023-04-08T01:42:19;21.75;;;5.90;;
37459;SDS011;23318;50.966;5.284;2023-04-08T01:44:51;17.58;;;5.82;;
37459;SDS011;23318;50.966;5.284;2023-04-08T01:47:19;21.75;;;6.13;;
37459;SDS011;23318;50.966;5.284;2023-04-08T01:49:45;29.35;;;6.68;;
37459;SDS011;23318;50.966;5.284;2023-04-08T01:52:11;21.02;;;6.70;;
37459;SDS011;23318;50.966;5.284;2023-04-08T01:54:38;28.23;;;7.00;;
37459;SDS011;23318;50.966;5.284;2023-04-08T01:57:04;31.65;;;6.78;;
37459;SDS011;23318;50.966;5.284;2023-04-08T01:59:33;23.42;;;6.57;;
37459;SDS011;23318;50.966;5.284;2023-04-08T02:02:01;22.05;;;6.30;;
37459;SDS011;23318;50.966;5.284;2023-04-08T02:04:30;23.77;;;6.78;;
37459;SDS011;23318;50.966;5.284;2023-04-08T02:06:58;22.70;;;7.22;;
37459;SDS011;23318;50.966;5.284;2023-04-08T02:09:25;19.55;;;6.28;;
37459;SDS011;23318;50.966;5.284;2023-04-08T02:11:51;30.13;;;7.40;;
37459;SDS011;23318;50.966;5.284;2023-04-08T02:14:17;21.27;;;6.85;;
37459;SDS011;23318;50.966;5.284;2023-04-08T02:16:49;30.25;;;7.75;;
37459;SDS011;23318;50.966;5.284;2023-04-08T02:21:51;21.40;;;6.95;;
37459;SDS011;23318;50.966;5.284;2023-04-08T02:24:25;20.52;;;6.45;;
37459;SDS011;23318;50.966;5.284;2023-04-08T02:26:51;20.20;;;6.00;;
37459;SDS011;23318;50.966;5.284;2023-04-08T02:29:20;20.00;;;6.20;;
37459;SDS011;23318;50.966;5.284;2023-04-08T02:31:46;22.67;;;6.85;;
37459;SDS011;23318;50.966;5.284;2023-04-08T02:34:14;22.25;;;7.22;;
37459;SDS011;23318;50.966;5.284;2023-04-08T02:36:41;28.58;;;6.45;;
37459;SDS011;23318;50.966;5.284;2023-04-08T02:39:10;22.67;;;7.55;;
37459;SDS011;23318;50.966;5.284;2023-04-08T02:41:35;21.13;;;6.32;;
37459;SDS011;23318;50.966;5.284;2023-04-08T02:44:01;19.17;;;7.70;;
37459;SDS011;23318;50.966;5.284;2023-04-08T02:46:27;29.90;;;8.13;;
37459;SDS011;23318;50.966;5.284;2023-04-08T02:48:52;26.75;;;9.85;;
37459;SDS011;23318;50.966;5.284;2023-04-08T02:51:18;30.73;;;9.05;;
37459;SDS011;23318;50.966;5.284;2023-04-08T02:53:45;30.52;;;10.05;;
37459;SDS011;23318;50.966;5.284;2023-04-08T02:56:11;25.90;;;9.05;;
37459;SDS011;23318;50.966;5.284;2023-04-08T02:58:37;26.60;;;10.27;;
37459;SDS011;23318;50.966;5.284;2023-04-08T03:01:03;28.48;;;10.07;;
37459;SDS011;23318;50.966;5.284;2023-04-08T03:03:29;19.25;;;9.40;;
37459;SDS011;23318;50.966;5.284;2023-04-08T03:05:55;29.40;;;11.15;;
37459;SDS011;23318;50.966;5.284;2023-04-08T03:08:21;32.05;;;10.15;;
37459;SDS011;23318;50.966;5.284;2023-04-08T03:10:47;23.15;;;10.15;;
37459;SDS011;23318;50.966;5.284;2023-04-08T03:13:14;29.50;;;11.35;;
37459;SDS011;23318;50.966;5.284;2023-04-08T03:15:40;29.52;;;11.25;;
37459;SDS011;23318;50.966;5.284;2023-04-08T03:18:06;24.95;;;11.40;;
37459;SDS011;23318;50.966;5.284;2023-04-08T03:20:32;33.92;;;10.82;;
37459;SDS011;23318;50.966;5.284;2023-04-08T03:22:57;29.88;;;11.18;;
37459;SDS011;23318;50.966;5.284;2023-04-08T03:25:23;27.65;;;11.55;;
37459;SDS011;23318;50.966;5.284;2023-04-08T03:27:50;34.22;;;10.98;;
37459;SDS011;23318;50.966;5.284;2023-04-08T03:30:16;33.40;;;12.65;;
37459;SDS011;23318;50.966;5.284;2023-04-08T03:32:41;32.33;;;11.18;;
37459;SDS011;23318;50.966;5.284;2023-04-08T03:35:09;29.02;;;11.85;;
37459;SDS011;23318;50.966;5.284;2023-04-08T03:37:35;26.65;;;10.60;;
37459;SDS011;23318;50.966;5.284;2023-04-08T03:40:01;28.13;;;10.77;;
37459;SDS011;23318;50.966;5.284;2023-04-08T03:42:27;28.80;;;10.98;;
37459;SDS011;23318;50.966;5.284;2023-04-08T03:44:53;31.52;;;10.88;;
37459;SDS011;23318;50.966;5.284;2023-04-08T03:47:19;32.72;;;10.52;;
37459;SDS011;23318;50.966;5.284;2023-04-08T03:49:45;34.35;;;9.82;;
37459;SDS011;23318;50.966;5.284;2023-04-08T03:52:10;21.83;;;9.48;;
37459;SDS011;23318;50.966;5.284;2023-04-08T03:54:36;35.55;;;10.90;;
37459;SDS011;23318;50.966;5.284;2023-04-08T03:57:02;25.35;;;9.43;;
37459;SDS011;23318;50.966;5.284;2023-04-08T03:59:28;26.70;;;10.60;;
37459;SDS011;23318;50.966;5.284;2023-04-08T04:01:54;33.10;;;10.50;;
37459;SDS011;23318;50.966;5.284;2023-04-08T04:04:20;21.40;;;10.05;;
37459;SDS011;23318;50.966;5.284;2023-04-08T04:06:46;28.75;;;11.77;;
37459;SDS011;23318;50.966;5.284;2023-04-08T04:09:11;34.33;;;13.65;;
37459;SDS011;23318;50.966;5.284;2023-04-08T04:11:39;34.72;;;14.48;;
37459;SDS011;23318;50.966;5.284;2023-04-08T04:14:04;42.90;;;15.00;;
37459;SDS011;23318;50.966;5.284;2023-04-08T04:16:30;36.40;;;15.40;;
37459;SDS011;23318;50.966;5.284;2023-04-08T04:18:56;40.00;;;15.15;;
37459;SDS011;23318;50.966;5.284;2023-04-08T04:21:21;46.08;;;17.05;;
37459;SDS011;23318;50.966;5.284;2023-04-08T04:23:47;43.85;;;17.20;;
37459;SDS011;23318;50.966;5.284;2023-04-08T04:26:13;42.22;;;16.77;;
37459;SDS011;23318;50.966;5.284;2023-04-08T04:28:39;38.90;;;17.52;;
37459;SDS011;23318;50.966;5.284;2023-04-08T04:31:06;36.70;;;17.08;;
37459;SDS011;23318;50.966;5.284;2023-04-08T04:33:32;42.53;;;17.83;;
37459;SDS011;23318;50.966;5.284;2023-04-08T04:35:57;37.15;;;18.48;;
37459;SDS011;23318;50.966;5.284;2023-04-08T04:38:23;49.92;;;18.15;;
37459;SDS011;23318;50.966;5.284;2023-04-08T04:40:49;45.95;;;17.70;;
37459;SDS011;23318;50.966;5.284;2023-04-08T04:43:15;48.10;;;18.65;;
37459;SDS011;23318;50.966;5.284;2023-04-08T04:45:40;44.50;;;19.50;;
37459;SDS011;23318;50.966;5.284;2023-04-08T04:48:06;46.80;;;17.70;;
37459;SDS011;23318;50.966;5.284;2023-04-08T04:50:41;45.33;;;18.55;;
37459;SDS011;23318;50.966;5.284;2023-04-08T04:53:09;45.28;;;18.50;;
37459;SDS011;23318;50.966;5.284;2023-04-08T04:55:34;41.70;;;17.73;;
37459;SDS011;23318;50.966;5.284;2023-04-08T04:58:00;44.47;;;17.58;;
37459;SDS011;23318;50.966;5.284;2023-04-08T05:00:26;37.67;;;18.83;;
37459;SDS011;23318;50.966;5.284;2023-04-08T05:02:51;39.95;;;18.40;;
37459;SDS011;23318;50.966;5.284;2023-04-08T05:05:17;38.00;;;16.05;;
37459;SDS011;23318;50.966;5.284;2023-04-08T05:07:43;37.28;;;17.60;;
37459;SDS011;23318;50.966;5.284;2023-04-08T05:10:09;40.95;;;16.92;;
37459;SDS011;23318;50.966;5.284;2023-04-08T05:12:35;39.67;;;17.23;;
37459;SDS011;23318;50.966;5.284;2023-04-08T05:15:02;40.35;;;16.48;;
37459;SDS011;23318;50.966;5.284;2023-04-08T05:17:28;37.28;;;17.08;;
37459;SDS011;23318;50.966;5.284;2023-04-08T05:19:54;52.45;;;24.58;;
37459;SDS011;23318;50.966;5.284;2023-04-08T05:22:20;55.75;;;21.45;;
37459;SDS011;23318;50.966;5.284;2023-04-08T05:24:46;53.83;;;23.80;;
37459;SDS011;23318;50.966;5.284;2023-04-08T05:27:12;60.47;;;27.70;;
37459;SDS011;23318;50.966;5.284;2023-04-08T05:29:38;57.75;;;24.77;;
37459;SDS011;23318;50.966;5.284;2023-04-08T05:32:03;56.70;;;27.13;;
37459;SDS011;23318;50.966;5.284;2023-04-08T05:34:30;65.70;;;25.45;;
37459;SDS011;23318;50.966;5.284;2023-04-08T05:36:56;67.07;;;27.05;;
37459;SDS011;23318;50.966;5.284;2023-04-08T05:39:23;58.72;;;25.52;;
37459;SDS011;23318;50.966;5.284;2023-04-08T05:41:48;60.97;;;25.65;;
37459;SDS011;23318;50.966;5.284;2023-04-08T05:44:14;59.70;;;23.23;;
37459;SDS011;23318;50.966;5.284;2023-04-08T05:46:40;62.90;;;24.50;;
37459;SDS011;23318;50.966;5.284;2023-04-08T05:49:05;51.45;;;23.40;;
37459;SDS011;23318;50.966;5.284;2023-04-08T05:51:31;57.28;;;23.40;;
37459;SDS011;23318;50.966;5.284;2023-04-08T05:53:57;54.85;;;24.38;;
37459;SDS011;23318;50.966;5.284;2023-04-08T05:56:23;61.33;;;24.77;;
37459;SDS011;23318;50.966;5.284;2023-04-08T05:58:49;69.45;;;28.67;;
37459;SDS011;23318;50.966;5.284;2023-04-08T06:01:15;66.43;;;27.00;;
37459;SDS011;23318;50.966;5.284;2023-04-08T06:03:40;62.47;;;27.88;;
37459;SDS011;23318;50.966;5.284;2023-04-08T06:06:09;78.22;;;31.25;;
37459;SDS011;23318;50.966;5.284;2023-04-08T06:08:38;74.78;;;28.90;;
37459;SDS011;23318;50.966;5.284;2023-04-08T06:11:04;77.25;;;30.17;;
37459;SDS011;23318;50.966;5.284;2023-04-08T06:13:30;65.22;;;31.08;;
37459;SDS011;23318;50.966;5.284;2023-04-08T06:15:56;68.63;;;29.85;;
37459;SDS011;23318;50.966;5.284;2023-04-08T06:18:22;75.63;;;31.30;;
37459;SDS011;23318;50.966;5.284;2023-04-08T06:20:48;59.95;;;30.30;;
37459;SDS011;23318;50.966;5.284;2023-04-08T06:23:14;69.35;;;32.40;;
37459;SDS011;23318;50.966;5.284;2023-04-08T06:25:40;72.43;;;31.27;;
37459;SDS011;23318;50.966;5.284;2023-04-08T06:28:06;61.42;;;32.63;;
37459;SDS011;23318;50.966;5.284;2023-04-08T06:30:31;66.90;;;31.73;;
37459;SDS011;23318;50.966;5.284;2023-04-08T06:32:57;68.88;;;31.55;;
37459;SDS011;23318;50.966;5.284;2023-04-08T06:35:23;71.90;;;33.72;;
37459;SDS011;23318;50.966;5.284;2023-04-08T06:37:48;65.72;;;33.13;;
37459;SDS011;23318;50.966;5.284;2023-04-08T06:40:14;71.15;;;34.40;;
37459;SDS011;23318;50.966;5.284;2023-04-08T06:42:40;77.80;;;36.90;;
37459;SDS011;23318;50.966;5.284;2023-04-08T06:45:08;76.47;;;36.25;;
37459;SDS011;23318;50.966;5.284;2023-04-08T06:47:35;84.72;;;45.55;;
37459;SDS011;23318;50.966;5.284;2023-04-08T06:50:01;65.82;;;35.38;;
37459;SDS011;23318;50.966;5.284;2023-04-08T06:52:26;77.28;;;37.72;;
37459;SDS011;23318;50.966;5.284;2023-04-08T06:54:52;77.50;;;37.88;;
37459;SDS011;23318;50.966;5.284;2023-04-08T06:57:19;71.97;;;36.85;;
37459;SDS011;23318;50.966;5.284;2023-04-08T06:59:45;78.53;;;37.08;;
37459;SDS011;23318;50.966;5.284;2023-04-08T07:02:10;73.82;;;37.22;;
37459;SDS011;23318;50.966;5.284;2023-04-08T07:04:36;70.45;;;36.58;;
37459;SDS011;23318;50.966;5.284;2023-04-08T07:07:02;70.93;;;37.90;;
37459;SDS011;23318;50.966;5.284;2023-04-08T07:09:28;78.65;;;39.10;;
37459;SDS011;23318;50.966;5.284;2023-04-08T07:11:53;78.05;;;37.72;;
37459;SDS011;23318;50.966;5.284;2023-04-08T07:14:19;76.07;;;36.95;;
37459;SDS011;23318;50.966;5.284;2023-04-08T07:16:45;90.40;;;39.70;;
37459;SDS011;23318;50.966;5.284;2023-04-08T07:19:11;65.43;;;35.33;;
37459;SDS011;23318;50.966;5.284;2023-04-08T07:21:37;69.82;;;36.33;;
37459;SDS011;23318;50.966;5.284;2023-04-08T07:24:03;74.43;;;36.78;;
37459;SDS011;23318;50.966;5.284;2023-04-08T07:26:28;72.95;;;36.70;;
37459;SDS011;23318;50.966;5.284;2023-04-08T07:28:54;69.30;;;36.33;;
37459;SDS011;23318;50.966;5.284;2023-04-08T07:31:19;76.18;;;35.83;;
37459;SDS011;23318;50.966;5.284;2023-04-08T07:33:45;70.63;;;38.25;;
37459;SDS011;23318;50.966;5.284;2023-04-08T07:36:12;63.72;;;36.70;;
37459;SDS011;23318;50.966;5.284;2023-04-08T07:38:38;70.25;;;36.72;;
37459;SDS011;23318;50.966;5.284;2023-04-08T07:41:04;64.38;;;36.60;;
37459;SDS011;23318;50.966;5.284;2023-04-08T07:43:31;62.65;;;35.38;;
37459;SDS011;23318;50.966;5.284;2023-04-08T07:46:01;64.47;;;33.88;;
37459;SDS011;23318;50.966;5.284;2023-04-08T07:48:28;56.88;;;32.58;;
37459;SDS011;23318;50.966;5.284;2023-04-08T07:50:55;60.40;;;32.00;;
37459;SDS011;23318;50.966;5.284;2023-04-08T07:53:21;52.53;;;30.20;;
37459;SDS011;23318;50.966;5.284;2023-04-08T07:55:50;48.22;;;28.13;;
37459;SDS011;23318;50.966;5.284;2023-04-08T07:58:16;40.97;;;24.20;;
37459;SDS011;23318;50.966;5.284;2023-04-08T08:00:42;35.80;;;23.17;;
37459;SDS011;23318;50.966;5.284;2023-04-08T08:03:08;37.42;;;23.33;;
37459;SDS011;23318;50.966;5.284;2023-04-08T08:05:34;40.22;;;23.83;;
37459;SDS011;23318;50.966;5.284;2023-04-08T08:08:01;41.40;;;25.52;;
37459;SDS011;23318;50.966;5.284;2023-04-08T08:10:28;49.33;;;28.52;;
37459;SDS011;23318;50.966;5.284;2023-04-08T08:12:53;43.00;;;28.25;;
37459;SDS011;23318;50.966;5.284;2023-04-08T08:15:19;43.83;;;26.55;;
37459;SDS011;23318;50.966;5.284;2023-04-08T08:17:46;48.25;;;28.08;;
37459;SDS011;23318;50.966;5.284;2023-04-08T08:20:11;38.40;;;25.90;;
37459;SDS011;23318;50.966;5.284;2023-04-08T08:22:37;41.13;;;24.55;;
37459;SDS011;23318;50.966;5.284;2023-04-08T08:25:05;51.60;;;32.00;;
37459;SDS011;23318;50.966;5.284;2023-04-08T08:27:33;38.22;;;23.08;;
37459;SDS011;23318;50.966;5.284;2023-04-08T08:29:59;43.35;;;23.85;;
37459;SDS011;23318;50.966;5.284;2023-04-08T08:32:24;43.28;;;24.60;;
37459;SDS011;23318;50.966;5.284;2023-04-08T08:34:51;42.63;;;26.75;;
37459;SDS011;23318;50.966;5.284;2023-04-08T08:37:16;41.95;;;25.35;;
37459;SDS011;23318;50.966;5.284;2023-04-08T08:39:42;39.60;;;25.52;;
37459;SDS011;23318;50.966;5.284;2023-04-08T08:42:24;37.10;;;24.08;;
37459;SDS011;23318;50.966;5.284;2023-04-08T08:44:50;38.35;;;23.05;;
37459;SDS011;23318;50.966;5.284;2023-04-08T08:47:16;28.27;;;20.83;;
37459;SDS011;23318;50.966;5.284;2023-04-08T08:49:42;35.78;;;20.92;;
37459;SDS011;23318;50.966;5.284;2023-04-08T08:52:09;34.00;;;21.10;;
37459;SDS011;23318;50.966;5.284;2023-04-08T08:54:35;29.00;;;19.17;;
37459;SDS011;23318;50.966;5.284;2023-04-08T08:57:02;32.13;;;17.40;;
37459;SDS011;23318;50.966;5.284;2023-04-08T08:59:28;26.95;;;16.05;;
37459;SDS011;23318;50.966;5.284;2023-04-08T09:01:53;29.55;;;17.95;;
37459;SDS011;23318;50.966;5.284;2023-04-08T09:04:19;26.40;;;16.73;;
37459;SDS011;23318;50.966;5.284;2023-04-08T09:06:47;25.92;;;18.23;;
37459;SDS011;23318;50.966;5.284;2023-04-08T09:09:15;20.80;;;15.25;;
37459;SDS011;23318;50.966;5.284;2023-04-08T09:11:42;28.63;;;15.93;;
37459;SDS011;23318;50.966;5.284;2023-04-08T09:14:31;22.95;;;16.38;;
37459;SDS011;23318;50.966;5.284;2023-04-08T09:16:56;24.48;;;16.25;;
37459;SDS011;23318;50.966;5.284;2023-04-08T09:19:22;19.20;;;14.68;;
37459;SDS011;23318;50.966;5.284;2023-04-08T09:22:07;20.38;;;13.75;;
37459;SDS011;23318;50.966;5.284;2023-04-08T09:24:34;18.60;;;13.95;;
37459;SDS011;23318;50.966;5.284;2023-04-08T09:27:03;17.42;;;11.60;;
37459;SDS011;23318;50.966;5.284;2023-04-08T09:29:30;9.57;;;7.90;;
37459;SDS011;23318;50.966;5.284;2023-04-08T09:31:58;12.32;;;7.47;;
37459;SDS011;23318;50.966;5.284;2023-04-08T09:34:25;11.50;;;8.85;;
37459;SDS011;23318;50.966;5.284;2023-04-08T09:36:54;16.95;;;10.95;;
37459;SDS011;23318;50.966;5.284;2023-04-08T09:39:20;17.92;;;13.10;;
37459;SDS011;23318;50.966;5.284;2023-04-08T09:41:49;20.85;;;12.73;;
37459;SDS011;23318;50.966;5.284;2023-04-08T09:44:16;24.05;;;15.85;;
37459;SDS011;23318;50.966;5.284;2023-04-08T09:52:23;30.40;;;18.83;;
37459;SDS011;23318;50.966;5.284;2023-04-08T09:57:36;32.75;;;19.75;;
37459;SDS011;23318;50.966;5.284;2023-04-08T10:00:09;29.83;;;19.27;;
37459;SDS011;23318;50.966;5.284;2023-04-08T10:05:09;32.42;;;19.42;;
37459;SDS011;23318;50.966;5.284;2023-04-08T10:07:38;29.95;;;20.02;;
37459;SDS011;23318;50.966;5.284;2023-04-08T10:10:05;29.95;;;19.30;;
37459;SDS011;23318;50.966;5.284;2023-04-08T10:12:35;28.02;;;19.50;;
37459;SDS011;23318;50.966;5.284;2023-04-08T10:17:49;36.72;;;19.08;;
37459;SDS011;23318;50.966;5.284;2023-04-08T10:20:49;32.53;;;19.67;;
37459;SDS011;23318;50.966;5.284;2023-04-08T10:23:09;28.08;;;18.33;;
37459;SDS011;23318;50.966;5.284;2023-04-08T10:25:43;28.27;;;18.63;;
37459;SDS011;23318;50.966;5.284;2023-04-08T10:33:10;29.00;;;17.75;;
37459;SDS011;23318;50.966;5.284;2023-04-08T10:35:43;27.52;;;18.23;;
37459;SDS011;23318;50.966;5.284;2023-04-08T10:38:13;29.10;;;18.90;;
37459;SDS011;23318;50.966;5.284;2023-04-08T10:40:40;30.92;;;18.33;;
37459;SDS011;23318;50.966;5.284;2023-04-08T10:43:07;28.58;;;19.42;;
37459;SDS011;23318;50.966;5.284;2023-04-08T10:45:34;27.75;;;19.13;;
37459;SDS011;23318;50.966;5.284;2023-04-08T10:48:19;27.77;;;19.05;;
37459;SDS011;23318;50.966;5.284;2023-04-08T10:50:56;29.30;;;18.60;;
37459;SDS011;23318;50.966;5.284;2023-04-08T10:53:26;30.23;;;17.83;;
37459;SDS011;23318;50.966;5.284;2023-04-08T10:56:08;25.65;;;18.35;;
37459;SDS011;23318;50.966;5.284;2023-04-08T10:58:52;30.65;;;17.67;;
37459;SDS011;23318;50.966;5.284;2023-04-08T11:01:21;27.55;;;17.13;;
37459;SDS011;23318;50.966;5.284;2023-04-08T11:03:47;26.15;;;18.00;;
37459;SDS011;23318;50.966;5.284;2023-04-08T11:06:13;28.42;;;18.80;;
37459;SDS011;23318;50.966;5.284;2023-04-08T11:08:40;28.80;;;18.65;;
37459;SDS011;23318;50.966;5.284;2023-04-08T11:11:06;27.88;;;17.65;;
37459;SDS011;23318;50.966;5.284;2023-04-08T11:13:39;26.75;;;17.38;;
37459;SDS011;23318;50.966;5.284;2023-04-08T11:16:07;24.13;;;18.08;;
37459;SDS011;23318;50.966;5.284;2023-04-08T11:18:39;26.33;;;17.40;;
37459;SDS011;23318;50.966;5.284;2023-04-08T11:21:09;24.98;;;18.35;;
37459;SDS011;23318;50.966;5.284;2023-04-08T11:23:35;23.42;;;16.42;;
37459;SDS011;23318;50.966;5.284;2023-04-08T11:26:01;25.27;;;16.58;;
37459;SDS011;23318;50.966;5.284;2023-04-08T11:28:27;21.95;;;15.77;;
37459;SDS011;23318;50.966;5.284;2023-04-08T11:30:54;20.02;;;14.60;;
37459;SDS011;23318;50.966;5.284;2023-04-08T11:33:20;22.98;;;16.10;;
37459;SDS011;23318;50.966;5.284;2023-04-08T11:35:49;25.35;;;16.45;;
37459;SDS011;23318;50.966;5.284;2023-04-08T11:38:15;22.38;;;15.80;;
37459;SDS011;23318;50.966;5.284;2023-04-08T11:40:52;19.75;;;15.02;;
37459;SDS011;23318;50.966;5.284;2023-04-08T11:43:19;24.45;;;14.55;;
37459;SDS011;23318;50.966;5.284;2023-04-08T11:45:45;22.45;;;15.32;;
37459;SDS011;23318;50.966;5.284;2023-04-08T11:48:11;20.15;;;14.48;;
37459;SDS011;23318;50.966;5.284;2023-04-08T11:50:39;23.00;;;14.70;;
37459;SDS011;23318;50.966;5.284;2023-04-08T11:53:15;19.08;;;13.98;;
37459;SDS011;23318;50.966;5.284;2023-04-08T11:55:50;19.58;;;13.50;;
37459;SDS011;23318;50.966;5.284;2023-04-08T11:58:16;19.10;;;14.65;;
37459;SDS011;23318;50.966;5.284;2023-04-08T12:00:43;16.40;;;13.60;;
37459;SDS011;23318;50.966;5.284;2023-04-08T12:03:10;18.70;;;13.32;;
37459;SDS011;23318;50.966;5.284;2023-04-08T12:05:37;18.50;;;13.00;;
37459;SDS011;23318;50.966;5.284;2023-04-08T12:08:03;20.23;;;13.73;;
37459;SDS011;23318;50.966;5.284;2023-04-08T12:10:29;16.35;;;13.38;;
37459;SDS011;23318;50.966;5.284;2023-04-08T12:12:55;16.75;;;13.45;;
37459;SDS011;23318;50.966;5.284;2023-04-08T12:15:21;22.35;;;14.70;;
37459;SDS011;23318;50.966;5.284;2023-04-08T12:17:46;19.02;;;13.43;;
37459;SDS011;23318;50.966;5.284;2023-04-08T12:20:12;18.92;;;13.90;;
37459;SDS011;23318;50.966;5.284;2023-04-08T12:22:38;18.77;;;13.85;;
37459;SDS011;23318;50.966;5.284;2023-04-08T12:25:04;21.88;;;13.18;;
37459;SDS011;23318;50.966;5.284;2023-04-08T12:27:30;20.73;;;13.70;;
37459;SDS011;23318;50.966;5.284;2023-04-08T12:29:57;23.02;;;14.52;;
37459;SDS011;23318;50.966;5.284;2023-04-08T12:32:23;18.65;;;13.60;;
37459;SDS011;23318;50.966;5.284;2023-04-08T12:34:49;19.75;;;14.52;;
37459;SDS011;23318;50.966;5.284;2023-04-08T12:37:15;21.30;;;14.13;;
37459;SDS011;23318;50.966;5.284;2023-04-08T12:39:41;19.40;;;14.35;;
37459;SDS011;23318;50.966;5.284;2023-04-08T12:42:07;19.50;;;13.20;;
37459;SDS011;23318;50.966;5.284;2023-04-08T12:44:33;16.20;;;12.30;;
37459;SDS011;23318;50.966;5.284;2023-04-08T12:46:59;17.90;;;13.00;;
37459;SDS011;23318;50.966;5.284;2023-04-08T12:49:25;16.52;;;12.18;;
37459;SDS011;23318;50.966;5.284;2023-04-08T12:51:51;16.30;;;12.32;;
37459;SDS011;23318;50.966;5.284;2023-04-08T12:54:17;17.08;;;12.65;;
37459;SDS011;23318;50.966;5.284;2023-04-08T12:56:44;16.38;;;12.70;;
37459;SDS011;23318;50.966;5.284;2023-04-08T12:59:10;18.77;;;12.40;;
37459;SDS011;23318;50.966;5.284;2023-04-08T13:01:36;18.38;;;12.40;;
37459;SDS011;23318;50.966;5.284;2023-04-08T13:04:01;14.85;;;12.27;;
37459;SDS011;23318;50.966;5.284;2023-04-08T13:06:27;15.93;;;12.95;;
37459;SDS011;23318;50.966;5.284;2023-04-08T13:08:53;17.88;;;11.90;;
37459;SDS011;23318;50.966;5.284;2023-04-08T13:11:19;13.95;;;11.50;;
37459;SDS011;23318;50.966;5.284;2023-04-08T13:13:46;14.75;;;10.85;;
37459;SDS011;23318;50.966;5.284;2023-04-08T13:16:12;17.48;;;12.65;;
37459;SDS011;23318;50.966;5.284;2023-04-08T13:18:38;14.63;;;11.38;;
37459;SDS011;23318;50.966;5.284;2023-04-08T13:21:05;15.02;;;11.43;;
37459;SDS011;23318;50.966;5.284;2023-04-08T13:23:31;17.08;;;11.82;;
37459;SDS011;23318;50.966;5.284;2023-04-08T13:25:57;13.52;;;10.98;;
37459;SDS011;23318;50.966;5.284;2023-04-08T13:28:23;15.48;;;10.55;;
37459;SDS011;23318;50.966;5.284;2023-04-08T13:30:48;15.02;;;9.82;;
37459;SDS011;23318;50.966;5.284;2023-04-08T13:33:15;12.60;;;9.90;;
37459;SDS011;23318;50.966;5.284;2023-04-08T13:35:41;12.02;;;9.18;;
37459;SDS011;23318;50.966;5.284;2023-04-08T13:38:07;12.20;;;9.32;;
37459;SDS011;23318;50.966;5.284;2023-04-08T13:40:33;10.77;;;9.02;;
37459;SDS011;23318;50.966;5.284;2023-04-08T13:42:58;15.45;;;10.45;;
37459;SDS011;23318;50.966;5.284;2023-04-08T13:45:24;13.90;;;11.25;;
37459;SDS011;23318;50.966;5.284;2023-04-08T13:47:50;13.80;;;10.57;;
37459;SDS011;23318;50.966;5.284;2023-04-08T13:50:15;11.32;;;8.80;;
37459;SDS011;23318;50.966;5.284;2023-04-08T13:52:41;13.07;;;10.23;;
37459;SDS011;23318;50.966;5.284;2023-04-08T13:55:07;12.13;;;10.02;;
37459;SDS011;23318;50.966;5.284;2023-04-08T13:57:33;12.73;;;10.30;;
37459;SDS011;23318;50.966;5.284;2023-04-08T13:59:59;10.82;;;9.23;;
37459;SDS011;23318;50.966;5.284;2023-04-08T14:02:24;14.00;;;10.23;;
37459;SDS011;23318;50.966;5.284;2023-04-08T14:04:50;13.07;;;10.95;;
37459;SDS011;23318;50.966;5.284;2023-04-08T14:07:16;11.30;;;8.90;;
37459;SDS011;23318;50.966;5.284;2023-04-08T14:09:43;12.95;;;9.63;;
37459;SDS011;23318;50.966;5.284;2023-04-08T14:12:08;11.90;;;9.30;;
37459;SDS011;23318;50.966;5.284;2023-04-08T14:14:34;13.20;;;9.90;;
37459;SDS011;23318;50.966;5.284;2023-04-08T14:17:00;11.02;;;9.20;;
37459;SDS011;23318;50.966;5.284;2023-04-08T14:19:26;13.00;;;9.80;;
37459;SDS011;23318;50.966;5.284;2023-04-08T14:21:51;16.58;;;10.43;;
37459;SDS011;23318;50.966;5.284;2023-04-08T14:24:17;11.77;;;10.57;;
37459;SDS011;23318;50.966;5.284;2023-04-08T14:26:43;12.70;;;10.38;;
37459;SDS011;23318;50.966;5.284;2023-04-08T14:29:09;12.70;;;10.90;;
37459;SDS011;23318;50.966;5.284;2023-04-08T14:31:35;13.70;;;11.32;;
37459;SDS011;23318;50.966;5.284;2023-04-08T14:34:01;16.17;;;11.40;;
37459;SDS011;23318;50.966;5.284;2023-04-08T14:36:27;12.82;;;10.68;;
37459;SDS011;23318;50.966;5.284;2023-04-08T14:38:54;12.25;;;10.88;;
37459;SDS011;23318;50.966;5.284;2023-04-08T14:41:20;16.08;;;12.05;;
37459;SDS011;23318;50.966;5.284;2023-04-08T14:43:46;15.98;;;12.35;;
37459;SDS011;23318;50.966;5.284;2023-04-08T14:46:12;16.30;;;12.00;;
37459;SDS011;23318;50.966;5.284;2023-04-08T14:48:38;20.40;;;13.63;;
37459;SDS011;23318;50.966;5.284;2023-04-08T14:51:04;14.80;;;11.80;;